Terminal Aerodrome Forecast
Issued by NWS

Home | Current Version | Previous Version | Text Only | Print | Product List | Glossary On
Versions: 1 2 3 4 5 6 7 8 9 10 11 12 13 14 15 16 17 18 19 20
000
FTAK31 PAJN 171127
TAFAJN
TAF
PAJN 171127Z 1712/1812 VRB03KT P6SM VCSH FEW002 SCT040 OVC070
      TEMPO 1712/1716 6SM -SHRA BR SCT002 BKN028 OVC040
     FM171800 30006KT P6SM SCT025 OVC035
     FM180400 08003KT P6SM OVC050
     FM180900 00000KT 3SM BR VCSH BKN050=

USA.gov is the U.S. government's official web portal to all federal, state and local government web resources and services.